ADDS METAR Data INFO
IDs: Format: Raw Decoded Include TAF

Data at: 0433 UTC 24 Apr 2018

KTRL 240353Z AUTO 00000KT 10SM CLR 14/11 A3004 RMK AO2 SLP168 T01390111
KTRL 240253Z AUTO 00000KT 10SM CLR 16/12 A3003 RMK AO2 SLP164 T01610117 53012
KTRL 240153Z AUTO 00000KT 10SM CLR 18/12 A3000 RMK AO2 SLP156 T01780117
KTRL 240053Z AUTO 02003KT 10SM CLR 21/11 A2999 RMK AO2 SLP152 T02060111
KTRL 232353Z AUTO 36006KT 10SM CLR 22/11 A2999 RMK AO2 SLP152 T02220106 10228 20178 56012
KTRL 232253Z AUTO 36008KT 10SM CLR 23/11 A3001 RMK AO2 SLP157 T02280106
KTRL 232153Z AUTO 35007KT 10SM FEW038 22/11 A3001 RMK AO2 SLP158 T02220111
KTRL 232053Z AUTO 36011G16KT 10SM FEW035 22/11 A3003 RMK AO2 SLP164 T02170111 58014
KTRL 231953Z AUTO 33011G20KT 10SM BKN033 20/11 A3005 RMK AO2 SLP172 T02000111
KTRL 231853Z AUTO 34008G16KT 10SM BKN030 19/11 A3007 RMK AO2 SLP178 T01940106
KTRL 231848Z AUTO 31010KT 10SM BKN031 19/11 A3007 RMK AO2
KTRL 231753Z AUTO 35009KT 10SM OVC026 18/11 A3008 RMK AO2 SLP184 T01780106 10178 20117 58001
KTRL 231653Z AUTO 33011KT 10SM OVC024 17/11 A3009 RMK AO2 SLP187 T01720106
KTRL 231553Z AUTO 33010KT 10SM OVC025 17/10 A3010 RMK AO2 SLP189 T01670100
KTRL 231453Z AUTO 32007KT 10SM BKN023 16/11 A3008 RMK AO2 SLP184 T01610106 51008
KTRL 231440Z AUTO 33009KT 10SM BKN023 16/10 A3009 RMK AO2 T01560100
KTRL 231353Z AUTO 32007KT 10SM CLR 14/09 A3008 RMK AO2 SLP183 T01390094
KTRL 231253Z AUTO 33005KT 10SM FEW012 12/09 A3007 RMK AO2 SLP181 T01220089
KTRL 231246Z AUTO 32006KT 10SM SCT012 12/09 A3007 RMK AO2 T01220089
KTRL 231153Z AUTO 33008KT 10SM BKN013 12/09 A3006 RMK AO2 SLP176 T01170089 10133 20100 51014
KTRL 231150Z AUTO 33008KT 10SM BKN013 11/08 A3006 RMK AO2
KTRL 231053Z AUTO 32006KT 10SM CLR 11/08 A3004 RMK AO2 SLP168 T01110083
KTRL 230953Z AUTO 33005KT 10SM CLR 12/09 A3002 RMK AO2 SLP161 T01170089
KTRL 230853Z AUTO 34005KT 10SM CLR 12/09 A3002 RMK AO2 SLP161 T01220089 55003
KTRL 230753Z AUTO 33006KT 10SM CLR 13/09 A3002 RMK AO2 SLP161 T01280089
KTRL 230653Z AUTO 29005KT 10SM CLR 11/08 A3002 RMK AO2 SLP164 T01110078
KTRL 230553Z AUTO 27005KT 10SM FEW055 11/08 A3003 RMK AO2 SLP165 T01110078 10183 20111 402000111 55003
KTRL 230453Z AUTO 26003KT 10SM CLR 11/08 A3002 RMK AO2 SLP164 T01110083
KTRL 230353Z AUTO 27004KT 10SM FEW060 13/09 A3004 RMK AO2 SLP169 T01280089
KTRL 230253Z AUTO 00000KT 10SM OVC060 14/09 A3004 RMK AO2 SLP168 T01440089 53007
KTRL 230153Z AUTO 32005KT 10SM OVC060 16/08 A3003 RMK AO2 SLP165 T01610078
KTRL 230053Z AUTO 32007KT 10SM FEW055 17/07 A3001 RMK AO2 SLP160 T01720072
KTRL 222353Z AUTO 31007KT 10SM OVC055 18/07 A3001 RMK AO2 SLP160 T01830072 10200 20167 56002
KTRL 222253Z AUTO 31012G20KT 10SM BKN055 19/07 A3001 RMK AO2 SLP160 T01890067
KTRL 222153Z AUTO 30015G20KT 10SM BKN050 19/07 A3001 RMK AO2 SLP159 T01940067
KTRL 222053Z AUTO 32016G21KT 10SM BKN047 18/07 A3002 RMK AO2 PK WND 30026/1954 SLP161 T01830067 58018
KTRL 221953Z AUTO 29013G22KT 10SM FEW043 19/07 A3004 RMK AO2 PK WND 29029/1858 SLP168 T01890072
KTRL 221853Z AUTO 28015G22KT 10SM SCT037 18/08 A3006 RMK AO2 SLP174 T01780083
KTRL 221753Z AUTO 33015G20KT 10SM CLR 17/07 A3007 RMK AO2 SLP181 T01670067 10167 20122 58001
KTRL 221653Z AUTO 33015G22KT 10SM CLR 15/07 A3008 RMK AO2 SLP184 T01500067